TimeEST,TemperatureF,Dew PointF,Humidity,Sea Level PressureIn,VisibilityMPH,Wind Direction,Wind SpeedMPH,Gust SpeedMPH,PrecipitationIn,Events,Conditions,WindDirDegrees,DateUTC
12:40 AM,42.8,37.4,81,29.78,10.0,North,6.9,-,N/A,,Overcast,360,2013-11-03 04:40:00
12:54 AM,42.1,37.0,82,29.76,10.0,North,8.1,-,N/A,,Overcast,10,2013-11-03 04:54:00
1:50 AM,41.0,35.6,81,29.81,10.0,Calm,Calm,-,N/A,,Overcast,0,2013-11-03 05:50:00
1:54 AM,41.0,36.0,82,29.79,10.0,Calm,Calm,-,N/A,,Overcast,0,2013-11-03 05:54:00
1:50 AM,37.4,33.8,87,29.84,10.0,WNW,8.1,-,N/A,,Overcast,290,2013-11-03 06:50:00
1:54 AM,37.9,34.0,86,29.83,10.0,WNW,8.1,-,N/A,,Overcast,300,2013-11-03 06:54:00
2:10 AM,37.4,33.8,87,29.84,10.0,NW,5.8,-,N/A,,Overcast,310,2013-11-03 07:10:00
2:30 AM,37.4,33.8,87,29.85,10.0,WNW,6.9,-,N/A,,Overcast,300,2013-11-03 07:30:00
2:54 AM,37.9,33.1,83,29.85,10.0,WNW,8.1,-,N/A,,Overcast,300,2013-11-03 07:54:00
3:54 AM,36.0,32.0,86,29.89,10.0,NW,8.1,-,N/A,,Overcast,310,2013-11-03 08:54:00
4:54 AM,35.1,30.0,82,29.94,10.0,NW,8.1,-,N/A,,Overcast,320,2013-11-03 09:54:00
5:54 AM,35.1,28.9,78,29.97,10.0,WNW,5.8,-,N/A,,Overcast,300,2013-11-03 10:54:00
6:35 AM,33.8,26.6,75,29.99,10.0,NW,6.9,-,N/A,,Overcast,310,2013-11-03 11:35:00
6:54 AM,34.0,27.0,75,30.01,10.0,NW,10.4,-,N/A,,Overcast,320,2013-11-03 11:54:00
7:54 AM,34.0,24.1,67,30.05,10.0,North,9.2,-,N/A,,Overcast,360,2013-11-03 12:54:00
8:54 AM,35.1,23.0,61,30.09,10.0,Variable,5.8,-,N/A,,Overcast,0,2013-11-03 13:54:00
9:54 AM,35.1,21.0,57,30.11,10.0,NW,10.4,-,N/A,,Overcast,320,2013-11-03 14:54:00
10:24 AM,35.6,21.2,56,30.12,10.0,NNW,6.9,-,N/A,,Overcast,340,2013-11-03 15:24:00
10:54 AM,35.1,21.0,57,30.14,10.0,North,10.4,19.6,N/A,,Overcast,350,2013-11-03 15:54:00
11:54 AM,37.9,21.9,53,30.14,10.0,NW,13.8,23.0,N/A,,Clear,320,2013-11-03 16:54:00
12:54 PM,39.0,21.9,50,30.14,10.0,NW,9.2,21.9,N/A,,Partly Cloudy,320,2013-11-03 17:54:00
1:54 PM,39.0,18.0,43,30.16,10.0,NNW,10.4,21.9,N/A,,Clear,330,2013-11-03 18:54:00
2:54 PM,37.9,17.1,43,30.20,10.0,NNW,8.1,-,N/A,,Clear,340,2013-11-03 19:54:00
3:54 PM,36.0,14.0,41,30.23,10.0,North,8.1,-,0.00,,Clear,350,2013-11-03 20:54:00
4:54 PM,33.1,16.0,50,30.26,10.0,NNW,4.6,-,N/A,,Clear,340,2013-11-03 21:54:00
5:54 PM,30.9,16.0,54,30.29,10.0,Variable,5.8,-,N/A,,Clear,0,2013-11-03 22:54:00
6:54 PM,30.9,7.0,37,30.32,10.0,North,5.8,-,N/A,,Clear,10,2013-11-03 23:54:00
7:54 PM,30.0,6.1,36,30.36,10.0,NNE,4.6,-,N/A,,Clear,20,2013-11-04 00:54:00
8:54 PM,28.9,10.0,45,30.39,10.0,NNE,5.8,-,N/A,,Clear,20,2013-11-04 01:54:00
9:54 PM,28.0,12.9,53,30.40,10.0,NE,5.8,-,N/A,,Clear,40,2013-11-04 02:54:00
10:54 PM,28.0,14.0,56,30.41,10.0,Variable,3.5,-,N/A,,Clear,0,2013-11-04 03:54:00